Time;durP1;ratioP1;P1;durP2;ratioP2;P2;SDS_P1;SDS_P2;PMS_P1;PMS_P2;Temp;Humidity;BMP_temperature;BMP_pressure;BME280_temperature;BME280_humidity;BME280_pressure;Samples;Min_cycle;Max_cycle;Signal;HPM_P1;HPM_P2
2022/09/29 00:01:29;;;;;;;1.92;1.80;;;17.50;71.30;;;;;;5036368;28;20189;-68
2022/09/29 00:03:55;;;;;;;1.90;1.75;;;17.50;71.30;;;;;;5036234;28;20183;-69
2022/09/29 00:06:21;;;;;;;2.20;2.00;;;17.50;71.30;;;;;;5036212;28;20190;-68
2022/09/29 00:08:48;;;;;;;2.45;1.90;;;17.50;71.30;;;;;;5036485;28;20194;-68
2022/09/29 00:11:18;;;;;;;1.98;1.77;;;17.50;71.20;;;;;;5052709;28;20174;-69
2022/09/29 00:13:45;;;;;;;2.20;1.90;;;17.40;71.10;;;;;;5035976;28;20213;-69
2022/09/29 00:16:12;;;;;;;2.05;1.75;;;17.50;71.30;;;;;;5035281;28;20210;-69
2022/09/29 00:18:38;;;;;;;1.75;1.65;;;17.40;71.10;;;;;;5043956;28;20191;-68
2022/09/29 00:21:20;;;;;;;3.05;1.92;;;17.40;71.10;;;;;;5032933;28;20187;-69
2022/09/29 00:23:47;;;;;;;1.90;1.50;;;17.40;71.10;;;;;;5015898;28;20206;-69
2022/09/29 00:26:20;;;;;;;3.13;1.67;;;17.50;71.30;;;;;;5032355;28;20214;-68
2022/09/29 00:28:57;;;;;;;2.83;2.15;;;17.50;71.30;;;;;;5032392;28;20190;-68
2022/09/29 00:31:29;;;;;;;2.50;1.90;;;17.50;71.30;;;;;;5032708;28;20273;-68
2022/09/29 00:33:56;;;;;;;2.15;1.88;;;17.40;71.20;;;;;;5032415;28;20203;-68
2022/09/29 00:36:23;;;;;;;2.03;1.83;;;17.40;71.20;;;;;;5015906;28;20218;-68
2022/09/29 00:38:53;;;;;;;1.90;1.65;;;17.50;71.20;;;;;;5032338;28;20186;-69
2022/09/29 00:41:41;;;;;;;3.30;1.90;;;17.40;71.10;;;;;;5015663;28;20190;-69
2022/09/29 00:44:52;;;;;;;2.13;1.73;;;17.40;71.10;;;;;;5031751;28;20198;-69
2022/09/29 00:47:19;;;;;;;2.00;1.80;;;17.40;71.20;;;;;;5021211;28;20197;-68
2022/09/29 00:49:54;;;;;;;2.40;1.92;;;17.40;71.20;;;;;;5043690;28;20217;-68
2022/09/29 00:52:28;;;;;;;1.77;1.42;;;17.40;71.10;;;;;;5035244;28;20209;-68
2022/09/29 00:55:12;;;;;;;1.70;1.60;;;17.40;71.20;;;;;;5052171;28;20657;-69
2022/09/29 00:57:54;;;;;;;2.88;1.90;;;17.40;71.20;;;;;;5034523;28;20206;-69
2022/09/29 01:00:20;;;;;;;1.80;1.60;;;17.40;71.10;;;;;;5052051;28;20175;-68
2022/09/29 01:02:54;;;;;;;2.15;1.75;;;17.40;71.10;;;;;;5068468;28;20221;-68
2022/09/29 01:05:32;;;;;;;2.17;1.60;;;17.40;71.10;;;;;;5035525;28;20182;-68
2022/09/29 01:08:11;;;;;;;2.20;2.00;;;17.40;71.10;;;;;;5051646;28;20186;-68
2022/09/29 01:10:40;;;;;;;1.50;1.40;;;17.40;71.20;;;;;;5035126;28;20178;-68
2022/09/29 01:13:05;;;;;;;1.90;1.50;;;17.40;71.20;;;;;;5051488;28;20274;-68
2022/09/29 01:15:31;;;;;;;3.33;2.15;;;17.40;71.10;;;;;;5051536;28;20191;-68
2022/09/29 01:17:57;;;;;;;2.00;1.70;;;17.40;71.10;;;;;;5034166;28;20218;-68
2022/09/29 01:20:24;;;;;;;2.08;1.80;;;17.40;71.20;;;;;;5036601;28;20210;-68
2022/09/29 01:23:35;;;;;;;2.15;1.90;;;17.40;71.20;;;;;;5032543;28;20291;-68
2022/09/29 01:26:39;;;;;;;1.70;1.60;;;17.40;71.10;;;;;;5031378;28;20266;-68
2022/09/29 01:29:48;;;;;;;2.15;1.95;;;17.40;71.10;;;;;;4993991;28;20278;-68
2022/09/29 01:32:22;;;;;;;1.77;1.58;;;17.40;71.10;;;;;;5031534;28;20707;-69
2022/09/29 01:34:51;;;;;;;2.65;1.70;;;17.40;71.10;;;;;;5031425;28;20166;-68
2022/09/29 01:37:56;;;;;;;2.78;1.60;;;17.40;71.10;;;;;;5014574;28;20314;-68
2022/09/29 01:41:04;;;;;;;1.67;1.45;;;17.40;71.10;;;;;;5014110;28;20195;-68
2022/09/29 01:43:38;;;;;;;2.28;1.75;;;17.40;71.10;;;;;;5032270;28;20260;-68
2022/09/29 01:46:29;;;;;;;1.60;1.50;;;17.40;71.20;;;;;;5031193;28;20171;-68
2022/09/29 01:48:57;;;;;;;1.75;1.40;;;17.40;71.10;;;;;;5033241;28;20209;-68
2022/09/29 01:51:42;;;;;;;1.70;1.42;;;17.40;71.10;;;;;;5034630;28;20191;-68
2022/09/29 01:54:19;;;;;;;1.38;1.27;;;17.40;71.10;;;;;;5052459;28;20163;-68
2022/09/29 01:57:14;;;;;;;1.75;1.30;;;17.40;71.20;;;;;;5034131;28;20224;-69
2022/09/29 02:00:11;;;;;;;1.35;1.20;;;17.40;71.20;;;;;;5034414;28;20185;-68
2022/09/29 02:03:10;;;;;;;1.67;1.42;;;17.40;71.10;;;;;;5072464;22;20264;-69
2022/09/29 02:05:46;;;;;;;2.13;1.30;;;17.40;71.20;;;;;;5070309;28;20246;-69
2022/09/29 02:08:24;;;;;;;1.40;1.30;;;17.40;71.10;;;;;;5069840;28;20266;-69
2022/09/29 02:11:04;;;;;;;1.17;1.08;;;17.40;71.20;;;;;;5050582;28;20210;-69
2022/09/29 02:13:49;;;;;;;1.40;1.27;;;17.40;71.20;;;;;;5030290;28;20191;-69
2022/09/29 02:16:22;;;;;;;1.52;1.33;;;17.40;71.20;;;;;;5016434;28;20703;-69
2022/09/29 02:19:01;;;;;;;1.98;1.20;;;17.40;71.20;;;;;;5029825;28;20194;-69
2022/09/29 02:21:27;;;;;;;1.42;1.20;;;17.40;71.20;;;;;;5013921;28;20214;-69
2022/09/29 02:23:54;;;;;;;1.92;1.50;;;17.40;71.20;;;;;;5016377;28;20203;-69
2022/09/29 02:26:23;;;;;;;1.88;1.60;;;17.40;71.10;;;;;;5049160;28;20217;-68
2022/09/29 02:28:49;;;;;;;1.63;1.15;;;17.40;71.10;;;;;;5023232;28;20187;-69
2022/09/29 02:31:15;;;;;;;1.40;1.30;;;17.40;71.10;;;;;;5046368;28;20298;-68
2022/09/29 02:33:41;;;;;;;2.13;1.40;;;17.40;71.10;;;;;;5018778;28;20282;-69
2022/09/29 02:36:30;;;;;;;1.25;1.15;;;17.40;71.20;;;;;;5038183;28;20198;-69
2022/09/29 02:39:22;;;;;;;1.33;1.20;;;17.40;71.20;;;;;;5034091;28;20328;-68
2022/09/29 02:42:40;;;;;;;1.33;1.20;;;17.40;71.10;;;;;;5053645;28;20249;-68
2022/09/29 02:45:57;;;;;;;1.40;1.30;;;17.40;71.20;;;;;;5037268;28;20186;-68
2022/09/29 02:48:52;;;;;;;1.40;1.30;;;17.40;71.10;;;;;;4978675;28;20203;-68
2022/09/29 02:51:31;;;;;;;1.38;1.27;;;17.40;71.20;;;;;;5017092;28;20290;-69
2022/09/29 02:54:34;;;;;;;1.42;1.33;;;17.40;71.20;;;;;;5017073;28;20241;-69
2022/09/29 02:57:25;;;;;;;1.42;1.33;;;17.40;71.10;;;;;;5033048;28;20211;-68
2022/09/29 03:00:08;;;;;;;1.20;1.10;;;17.40;71.10;;;;;;5033443;28;20187;-69
2022/09/29 03:02:35;;;;;;;1.08;1.02;;;17.40;71.10;;;;;;5033169;28;21125;-68
2022/09/29 03:05:08;;;;;;;1.20;1.10;;;17.40;71.20;;;;;;5033679;28;20183;-68
2022/09/29 03:07:36;;;;;;;1.20;1.10;;;17.40;71.10;;;;;;5033176;28;20187;-68
2022/09/29 03:10:03;;;;;;;1.35;1.20;;;17.40;71.10;;;;;;5016583;28;20187;-69
2022/09/29 03:12:29;;;;;;;2.28;1.25;;;17.40;71.10;;;;;;5034367;28;20241;-69
2022/09/29 03:14:55;;;;;;;1.70;1.20;;;17.40;71.10;;;;;;5033116;28;20187;-69
2022/09/29 03:17:22;;;;;;;1.70;1.10;;;17.40;71.20;;;;;;5050376;28;20215;-69
2022/09/29 03:19:47;;;;;;;2.13;1.00;;;17.40;71.10;;;;;;5032799;28;20191;-69
2022/09/29 03:22:13;;;;;;;1.27;1.08;;;17.40;71.10;;;;;;5033047;28;20245;-69
2022/09/29 03:24:40;;;;;;;1.45;1.10;;;17.40;71.10;;;;;;5016467;28;20176;-69
2022/09/29 03:27:08;;;;;;;1.00;1.00;;;17.40;71.10;;;;;;5032463;28;20245;-68
2022/09/29 03:29:35;;;;;;;1.10;1.00;;;17.30;71.00;;;;;;5016349;28;20234;-69
2022/09/29 03:32:01;;;;;;;1.40;1.00;;;17.40;71.00;;;;;;5032713;28;20203;-69
2022/09/29 03:34:27;;;;;;;2.47;1.20;;;17.40;71.00;;;;;;5032920;28;20195;-68
2022/09/29 03:36:53;;;;;;;1.00;0.90;;;17.40;71.00;;;;;;5032320;28;20199;-69
2022/09/29 03:39:19;;;;;;;2.25;1.20;;;17.40;71.10;;;;;;5032651;28;20610;-67
2022/09/29 03:41:46;;;;;;;1.10;0.98;;;17.30;70.90;;;;;;5033670;28;20274;-69
2022/09/29 03:44:12;;;;;;;1.52;1.30;;;17.30;71.00;;;;;;5016427;28;20671;-68
2022/09/29 03:46:37;;;;;;;1.02;1.02;;;17.30;71.00;;;;;;5032022;28;20258;-68
2022/09/29 03:49:03;;;;;;;1.50;0.98;;;17.30;71.00;;;;;;5032331;28;20264;-68
2022/09/29 03:51:29;;;;;;;0.90;0.90;;;17.40;71.00;;;;;;5031876;28;20207;-69
2022/09/29 03:53:55;;;;;;;1.23;1.15;;;17.30;71.00;;;;;;5015716;28;20183;-69
2022/09/29 03:56:21;;;;;;;1.20;1.10;;;17.30;71.00;;;;;;5046690;28;20209;-69
2022/09/29 03:58:46;;;;;;;0.90;0.90;;;17.30;71.00;;;;;;5051914;28;20183;-69
2022/09/29 04:01:12;;;;;;;1.73;1.15;;;17.40;71.10;;;;;;5034408;28;20195;-69
2022/09/29 04:03:38;;;;;;;1.38;1.20;;;17.40;71.10;;;;;;5015742;28;20237;-69
2022/09/29 04:06:04;;;;;;;1.13;1.02;;;17.30;71.00;;;;;;5015722;28;20179;-68
2022/09/29 04:08:30;;;;;;;1.10;1.10;;;17.30;71.00;;;;;;5015169;28;20187;-69
2022/09/29 04:10:55;;;;;;;1.25;1.10;;;17.40;71.00;;;;;;5015455;28;20208;-69
2022/09/29 04:13:21;;;;;;;1.10;1.00;;;17.40;71.10;;;;;;5015423;28;20185;-69
2022/09/29 04:15:48;;;;;;;1.10;1.00;;;17.30;70.90;;;;;;5015374;28;20188;-69
2022/09/29 04:18:15;;;;;;;1.25;1.10;;;17.40;71.80;;;;;;5023205;28;20246;-69
2022/09/29 04:20:40;;;;;;;1.50;1.23;;;17.30;71.00;;;;;;5015450;28;20203;-69
2022/09/29 04:23:06;;;;;;;1.30;1.00;;;17.40;71.10;;;;;;5015310;28;20184;-69
2022/09/29 04:25:32;;;;;;;1.45;1.10;;;17.30;71.00;;;;;;5040798;28;20210;-69
2022/09/29 04:27:59;;;;;;;1.35;1.25;;;17.30;71.00;;;;;;5015288;28;20202;-69
2022/09/29 04:30:25;;;;;;;1.10;1.00;;;17.30;70.90;;;;;;5015172;28;20235;-69
2022/09/29 04:32:50;;;;;;;1.10;0.90;;;17.30;70.90;;;;;;5015397;28;20284;-69
2022/09/29 04:35:16;;;;;;;1.10;1.00;;;17.30;71.60;;;;;;5015016;28;20195;-69
2022/09/29 04:37:42;;;;;;;1.85;1.20;;;17.30;70.90;;;;;;5014616;28;20221;-69
2022/09/29 04:40:08;;;;;;;1.35;1.25;;;17.30;71.00;;;;;;5014950;28;20187;-69
2022/09/29 04:42:34;;;;;;;1.20;1.10;;;17.30;71.00;;;;;;5015017;28;20198;-68
2022/09/29 04:45:00;;;;;;;1.50;1.23;;;17.30;71.00;;;;;;5015022;28;20278;-69
2022/09/29 04:47:26;;;;;;;1.10;1.00;;;17.30;71.00;;;;;;5031201;28;20608;-69
2022/09/29 04:49:51;;;;;;;1.40;1.10;;;17.30;71.00;;;;;;5033154;28;20327;-69
2022/09/29 04:52:17;;;;;;;1.02;0.95;;;17.30;71.00;;;;;;5034409;28;20218;-69
2022/09/29 04:54:43;;;;;;;1.45;1.30;;;17.30;71.00;;;;;;5034554;28;20182;-68
2022/09/29 04:57:09;;;;;;;1.20;1.10;;;17.30;71.00;;;;;;5033908;28;20641;-69
2022/09/29 04:59:35;;;;;;;1.30;1.00;;;17.30;71.00;;;;;;5034571;28;20273;-68
2022/09/29 05:02:01;;;;;;;1.10;1.00;;;17.30;71.00;;;;;;5034502;28;20285;-68
2022/09/29 05:04:26;;;;;;;1.42;1.10;;;17.30;71.00;;;;;;5034273;28;20234;-68
2022/09/29 05:06:52;;;;;;;1.27;1.15;;;17.30;71.00;;;;;;5033969;28;20190;-68
2022/09/29 05:09:18;;;;;;;1.40;1.10;;;17.30;71.00;;;;;;5034145;28;20232;-68
2022/09/29 05:11:44;;;;;;;1.33;1.23;;;17.30;71.00;;;;;;5034182;28;20240;-68
2022/09/29 05:14:12;;;;;;;1.20;1.10;;;17.30;71.00;;;;;;5034248;28;20206;-69
2022/09/29 05:16:37;;;;;;;0.98;0.98;;;17.30;71.00;;;;;;5033359;28;20301;-69
2022/09/29 05:19:03;;;;;;;1.15;1.05;;;17.30;71.00;;;;;;5014361;28;20210;-69
2022/09/29 05:21:29;;;;;;;1.30;1.20;;;17.30;71.00;;;;;;5030241;28;20207;-69
2022/09/29 05:23:56;;;;;;;1.30;1.20;;;17.30;71.00;;;;;;5014707;28;20179;-68
2022/09/29 05:26:22;;;;;;;1.95;1.45;;;17.30;70.90;;;;;;5014313;28;20222;-68
2022/09/29 05:28:48;;;;;;;1.05;1.02;;;17.30;71.00;;;;;;5014223;28;20187;-68
2022/09/29 05:31:14;;;;;;;1.27;1.17;;;17.30;71.00;;;;;;5014037;28;20237;-68
2022/09/29 05:33:40;;;;;;;1.30;1.20;;;17.30;71.00;;;;;;5014138;28;20190;-68
2022/09/29 05:36:10;;;;;;;1.40;1.30;;;17.30;71.00;;;;;;5030532;28;20191;-68
2022/09/29 05:38:38;;;;;;;1.85;1.42;;;17.30;71.00;;;;;;5013565;28;20187;-68
2022/09/29 05:41:09;;;;;;;1.70;1.60;;;17.30;71.00;;;;;;5030426;28;20206;-68
2022/09/29 05:43:35;;;;;;;1.75;1.38;;;17.30;71.00;;;;;;5014085;28;20175;-67
2022/09/29 05:46:07;;;;;;;1.40;1.30;;;17.30;71.00;;;;;;5014130;28;20190;-68
2022/09/29 05:48:33;;;;;;;1.80;1.50;;;17.30;71.00;;;;;;5022194;28;20188;-68
2022/09/29 05:51:10;;;;;;;1.10;1.00;;;17.30;71.00;;;;;;5030233;28;20203;-68
2022/09/29 05:53:37;;;;;;;1.55;1.45;;;17.30;71.00;;;;;;5017967;28;20175;-68
2022/09/29 05:56:09;;;;;;;1.75;1.30;;;17.30;71.00;;;;;;5025521;28;20190;-68
2022/09/29 05:58:36;;;;;;;1.55;1.45;;;17.30;71.00;;;;;;5030077;28;20203;-68
2022/09/29 06:01:12;;;;;;;1.58;1.48;;;17.30;71.00;;;;;;5013817;28;20281;-68
2022/09/29 06:03:39;;;;;;;1.70;1.52;;;17.30;71.70;;;;;;5050455;28;20205;-69
2022/09/29 06:06:13;;;;;;;1.55;1.45;;;17.30;70.90;;;;;;5033985;28;20197;-68
2022/09/29 06:08:39;;;;;;;1.42;1.33;;;17.30;71.10;;;;;;5033393;28;20174;-68
2022/09/29 06:11:12;;;;;;;1.40;1.30;;;17.30;70.90;;;;;;5047999;28;20198;-68
2022/09/29 06:13:44;;;;;;;2.08;1.88;;;17.30;71.00;;;;;;5040784;28;20187;-68
2022/09/29 06:16:11;;;;;;;1.65;1.52;;;17.30;70.90;;;;;;5017182;28;20186;-68
2022/09/29 06:18:37;;;;;;;1.70;1.50;;;17.30;71.00;;;;;;5025714;28;20190;-68
2022/09/29 06:21:09;;;;;;;1.55;1.45;;;17.30;70.90;;;;;;5030421;28;20202;-68
2022/09/29 06:23:35;;;;;;;1.92;1.73;;;17.30;71.00;;;;;;5017421;28;20194;-68
2022/09/29 06:26:12;;;;;;;1.60;1.40;;;17.30;71.00;;;;;;5029567;28;20236;-68
2022/09/29 06:28:39;;;;;;;1.48;1.38;;;17.30;71.00;;;;;;5029132;28;20192;-69
2022/09/29 06:31:13;;;;;;;1.80;1.55;;;17.30;70.90;;;;;;5037221;28;20209;-68
2022/09/29 06:33:39;;;;;;;1.63;1.52;;;17.30;71.00;;;;;;5037277;28;20192;-68
2022/09/29 06:39:09;;;;;;;2.03;1.80;;;17.30;71.00;;;;;;5048587;28;20273;-69
2022/09/29 06:41:35;;;;;;;2.00;1.40;;;17.30;71.50;;;;;;5017437;28;20203;-69
2022/09/29 06:44:01;;;;;;;1.67;1.50;;;17.30;70.90;;;;;;5033453;28;20206;-68
2022/09/29 06:46:27;;;;;;;1.40;1.30;;;17.30;70.90;;;;;;5016627;28;20186;-69
2022/09/29 06:48:54;;;;;;;1.70;1.60;;;17.30;71.00;;;;;;5032734;28;20191;-69
2022/09/29 06:51:22;;;;;;;1.70;1.42;;;17.30;70.90;;;;;;5016970;28;20214;-69
2022/09/29 06:53:49;;;;;;;1.58;1.48;;;17.20;70.90;;;;;;5017061;28;20213;-69
2022/09/29 06:56:16;;;;;;;1.63;1.52;;;17.30;71.00;;;;;;5016832;28;20684;-68
2022/09/29 06:58:43;;;;;;;2.17;1.40;;;17.30;70.90;;;;;;5016604;28;20183;-69
2022/09/29 07:01:10;;;;;;;1.63;1.30;;;17.20;70.80;;;;;;5033325;28;20199;-69
2022/09/29 07:03:36;;;;;;;1.10;1.08;;;17.30;71.00;;;;;;5017033;28;20199;-69
2022/09/29 07:06:08;;;;;;;1.30;1.20;;;17.30;70.90;;;;;;5033329;28;20292;-69
2022/09/29 07:08:37;;;;;;;1.45;1.35;;;17.30;71.00;;;;;;5016877;28;20233;-69
2022/09/29 07:11:05;;;;;;;1.95;1.38;;;17.30;70.90;;;;;;5016722;28;20218;-69
2022/09/29 07:13:31;;;;;;;1.58;1.48;;;17.30;70.90;;;;;;5016634;28;20187;-69
2022/09/29 07:16:12;;;;;;;1.73;1.63;;;17.20;70.80;;;;;;5017020;28;20197;-69
2022/09/29 07:18:41;;;;;;;2.90;2.05;;;17.30;70.80;;;;;;5032906;28;20198;-68
2022/09/29 07:21:10;;;;;;;3.38;2.53;;;17.30;70.90;;;;;;5036260;28;20593;-68
2022/09/29 07:23:37;;;;;;;2.60;2.20;;;17.30;70.90;;;;;;5036172;28;20267;-69
2022/09/29 07:26:07;;;;;;;2.30;2.10;;;17.20;70.80;;;;;;5034939;28;20194;-69
2022/09/29 07:28:34;;;;;;;2.65;1.85;;;17.20;70.70;;;;;;5035775;28;20194;-69
2022/09/29 07:31:10;;;;;;;2.70;2.17;;;17.30;70.80;;;;;;5036141;28;20209;-69
2022/09/29 07:33:36;;;;;;;2.00;1.75;;;17.30;70.90;;;;;;5036155;28;20193;-69
2022/09/29 07:36:02;;;;;;;2.50;2.25;;;17.30;70.90;;;;;;5036183;28;20174;-69
2022/09/29 07:38:30;;;;;;;2.25;2.05;;;17.30;70.90;;;;;;5035592;28;20675;-69
2022/09/29 07:41:05;;;;;;;1.95;1.77;;;17.30;70.90;;;;;;5035864;28;20703;-69
2022/09/29 07:43:32;;;;;;;2.03;1.60;;;17.30;70.90;;;;;;5052544;28;20174;-69
2022/09/29 07:46:01;;;;;;;2.42;1.33;;;17.30;70.80;;;;;;5035624;28;20182;-69
2022/09/29 07:48:29;;;;;;;1.88;1.60;;;17.30;70.80;;;;;;5031943;28;20213;-68
2022/09/29 07:51:21;;;;;;;1.95;1.75;;;17.30;70.80;;;;;;5046116;28;20211;-69
2022/09/29 07:53:47;;;;;;;2.95;1.70;;;17.30;70.70;;;;;;5014765;28;20195;-69
2022/09/29 07:56:17;;;;;;;2.17;1.60;;;17.30;70.70;;;;;;5015747;28;20192;-69
2022/09/29 07:58:45;;;;;;;1.50;1.40;;;17.30;70.70;;;;;;5015530;28;20215;-69
2022/09/29 08:01:13;;;;;;;2.55;1.80;;;17.30;70.70;;;;;;5015576;28;20211;-69
2022/09/29 08:03:42;;;;;;;2.22;1.67;;;17.30;70.70;;;;;;5036334;23;20235;-69
2022/09/29 08:06:10;;;;;;;1.88;1.60;;;17.30;70.70;;;;;;5032454;28;20188;-69
2022/09/29 08:08:38;;;;;;;2.15;1.83;;;17.30;70.70;;;;;;5031891;28;20187;-69
2022/09/29 08:11:11;;;;;;;1.80;1.70;;;17.30;70.70;;;;;;5032269;28;20206;-69
2022/09/29 08:13:37;;;;;;;1.90;1.70;;;17.30;70.70;;;;;;5032241;28;20203;-69
2022/09/29 08:16:07;;;;;;;1.80;1.60;;;17.30;70.70;;;;;;5032163;28;20191;-69
2022/09/29 08:18:35;;;;;;;1.77;1.65;;;17.30;70.70;;;;;;5039846;28;20219;-69
2022/09/29 08:21:02;;;;;;;1.83;1.65;;;17.30;70.70;;;;;;5012431;28;20207;-69
2022/09/29 08:23:28;;;;;;;2.10;1.60;;;17.30;70.70;;;;;;5012049;28;20246;-69
2022/09/29 08:26:10;;;;;;;2.10;1.90;;;17.30;70.70;;;;;;5012362;28;20279;-69
2022/09/29 08:28:37;;;;;;;1.70;1.60;;;17.30;70.60;;;;;;5028441;28;20188;-69
2022/09/29 08:31:20;;;;;;;2.45;1.80;;;17.30;70.60;;;;;;5028992;28;20221;-69
2022/09/29 08:33:51;;;;;;;1.50;1.40;;;17.40;70.70;;;;;;5031771;28;20211;-69
2022/09/29 08:36:19;;;;;;;1.70;1.60;;;17.30;70.60;;;;;;5031709;28;20199;-69
2022/09/29 08:38:48;;;;;;;1.40;1.30;;;17.40;70.70;;;;;;5015357;28;20206;-69
2022/09/29 08:42:04;;;;;;;1.90;1.70;;;17.40;70.60;;;;;;5033116;28;20183;-69
2022/09/29 08:44:42;;;;;;;1.60;1.48;;;17.40;70.60;;;;;;5031727;28;20207;-69
2022/09/29 08:47:20;;;;;;;1.67;1.58;;;17.40;70.50;;;;;;5028231;28;20213;-69
2022/09/29 08:50:02;;;;;;;1.65;1.55;;;17.40;70.50;;;;;;5044313;28;20291;-69
2022/09/29 08:52:34;;;;;;;2.38;1.65;;;17.40;70.60;;;;;;5048102;28;20742;-68
2022/09/29 08:55:21;;;;;;;2.15;1.67;;;17.40;70.50;;;;;;5031721;28;20241;-69
2022/09/29 08:57:52;;;;;;;1.88;1.65;;;17.40;70.50;;;;;;5031350;28;20405;-69
2022/09/29 09:00:22;;;;;;;2.15;1.80;;;17.40;70.50;;;;;;5015041;28;20193;-69
2022/09/29 09:03:04;;;;;;;1.95;1.70;;;17.40;70.50;;;;;;5014663;28;20217;-69
2022/09/29 09:05:51;;;;;;;1.98;1.77;;;17.40;70.50;;;;;;5032583;28;20182;-69
2022/09/29 09:08:41;;;;;;;3.75;1.80;;;17.40;70.40;;;;;;5031070;28;20187;-69
2022/09/29 09:11:24;;;;;;;2.33;1.95;;;17.40;70.50;;;;;;5031233;28;20222;-69
2022/09/29 09:14:06;;;;;;;1.95;1.75;;;17.40;70.40;;;;;;5030924;28;20259;-69
2022/09/29 09:16:47;;;;;;;2.45;1.75;;;17.40;70.40;;;;;;5014660;28;20219;-69
2022/09/29 09:19:32;;;;;;;2.22;1.88;;;17.40;70.40;;;;;;5015987;28;20187;-69
2022/09/29 09:22:45;;;;;;;1.90;1.70;;;17.40;70.20;;;;;;5032285;28;20187;-69
2022/09/29 09:25:34;;;;;;;1.90;1.70;;;17.40;70.20;;;;;;5024595;28;20213;-69
2022/09/29 09:28:18;;;;;;;2.13;1.67;;;17.40;70.10;;;;;;5014232;28;20187;-69
2022/09/29 09:31:16;;;;;;;1.95;1.85;;;17.40;70.10;;;;;;5047489;28;20191;-69
2022/09/29 09:33:58;;;;;;;2.22;1.52;;;17.40;70.10;;;;;;5027793;28;20226;-69
2022/09/29 09:36:47;;;;;;;2.42;1.73;;;17.40;70.10;;;;;;5014294;28;20187;-69
2022/09/29 09:39:32;;;;;;;2.00;1.77;;;17.40;70.10;;;;;;5014367;28;20180;-69
2022/09/29 09:42:02;;;;;;;1.80;1.70;;;17.40;70.10;;;;;;5030825;28;20183;-69
2022/09/29 09:44:47;;;;;;;2.30;2.10;;;17.50;70.20;;;;;;5016796;28;20195;-69
2022/09/29 09:47:27;;;;;;;2.30;2.10;;;17.40;70.10;;;;;;5035353;28;20194;-67
2022/09/29 09:50:15;;;;;;;2.97;2.00;;;17.50;70.20;;;;;;5038055;28;20183;-69
2022/09/29 09:52:55;;;;;;;2.10;1.80;;;17.40;70.90;;;;;;5038389;28;20214;-69
2022/09/29 09:55:24;;;;;;;2.47;1.90;;;17.50;70.20;;;;;;5027963;28;20196;-69
2022/09/29 09:58:24;;;;;;;2.72;1.80;;;17.50;70.20;;;;;;5018165;28;20290;-69
2022/09/29 10:01:03;;;;;;;1.83;1.73;;;17.50;70.20;;;;;;5016698;28;20202;-69
2022/09/29 10:03:30;;;;;;;2.45;2.25;;;17.50;70.20;;;;;;5016580;28;20246;-70
2022/09/29 10:05:56;;;;;;;2.55;2.20;;;17.50;70.20;;;;;;4995311;28;20192;-68
2022/09/29 10:08:30;;;;;;;2.08;1.88;;;17.50;70.20;;;;;;5011140;28;20172;-69
2022/09/29 10:10:58;;;;;;;2.58;2.03;;;17.50;70.20;;;;;;4994917;28;20226;-69
2022/09/29 10:13:27;;;;;;;2.67;1.80;;;17.50;70.20;;;;;;4995100;28;20222;-69
2022/09/29 10:16:24;;;;;;;2.63;1.92;;;17.50;70.20;;;;;;5012351;28;20188;-69
2022/09/29 10:18:53;;;;;;;2.00;1.80;;;17.50;70.20;;;;;;5039198;28;20217;-69
2022/09/29 10:21:28;;;;;;;2.85;2.28;;;17.50;70.20;;;;;;5051070;28;20600;-69
2022/09/29 10:24:01;;;;;;;3.72;2.88;;;17.50;70.20;;;;;;5051049;28;20197;-70
2022/09/29 10:26:42;;;;;;;3.15;2.58;;;17.50;70.20;;;;;;5056114;28;20198;-69
2022/09/29 10:29:43;;;;;;;3.35;2.80;;;17.50;70.20;;;;;;5031141;28;20273;-69
2022/09/29 10:32:21;;;;;;;2.08;1.83;;;17.50;70.20;;;;;;5047524;28;20175;-69
2022/09/29 10:35:03;;;;;;;2.30;2.03;;;17.50;70.20;;;;;;5031941;28;20205;-69
2022/09/29 10:37:36;;;;;;;2.85;2.35;;;17.50;70.20;;;;;;5030482;28;20214;-68
2022/09/29 10:40:17;;;;;;;2.30;1.90;;;17.50;70.20;;;;;;5032000;28;20588;-69
2022/09/29 10:42:47;;;;;;;2.47;2.17;;;17.50;70.20;;;;;;5014563;28;20202;-68
2022/09/29 10:45:24;;;;;;;2.58;2.03;;;17.50;69.80;;;;;;5030865;28;20187;-68
2022/09/29 10:48:03;;;;;;;2.45;1.88;;;17.50;70.00;;;;;;5014682;28;20679;-69
2022/09/29 10:50:35;;;;;;;2.20;2.00;;;17.50;70.00;;;;;;5035088;28;20190;-69
2022/09/29 10:53:06;;;;;;;2.53;1.85;;;17.50;69.70;;;;;;5037054;28;20221;-68
2022/09/29 10:55:48;;;;;;;2.97;2.00;;;17.50;69.80;;;;;;5005089;28;20632;-70
2022/09/29 10:58:35;;;;;;;2.38;1.73;;;17.50;69.80;;;;;;4994309;28;20291;-69
2022/09/29 11:01:10;;;;;;;3.97;2.15;;;17.50;69.60;;;;;;4997696;28;20192;-69
2022/09/29 11:04:00;;;;;;;2.63;2.03;;;17.60;69.70;;;;;;5014606;28;20238;-69
2022/09/29 11:06:40;;;;;;;2.85;2.17;;;17.60;69.50;;;;;;4998287;28;20187;-70
2022/09/29 11:09:14;;;;;;;2.63;1.83;;;17.60;69.50;;;;;;5030518;28;20303;-69
2022/09/29 11:11:53;;;;;;;2.85;2.10;;;17.60;69.30;;;;;;4998015;28;20200;-69
2022/09/29 11:14:28;;;;;;;4.22;2.50;;;17.60;69.30;;;;;;5014418;28;20687;-68
2022/09/29 11:16:59;;;;;;;3.50;2.55;;;17.60;69.50;;;;;;5014267;28;20211;-70
2022/09/29 11:19:28;;;;;;;4.63;2.78;;;17.60;69.50;;;;;;5030224;28;20184;-70
2022/09/29 11:22:10;;;;;;;4.78;2.80;;;17.50;69.10;;;;;;5003208;28;20184;-70
2022/09/29 11:25:23;;;;;;;4.28;2.90;;;17.60;69.20;;;;;;5028627;28;20214;-70
2022/09/29 11:28:24;;;;;;;3.20;2.33;;;17.50;69.00;;;;;;5070042;28;20186;-70
2022/09/29 11:31:19;;;;;;;2.63;2.35;;;17.60;69.10;;;;;;5053848;28;20182;-70
2022/09/29 11:34:13;;;;;;;4.65;2.65;;;17.60;68.90;;;;;;5070085;28;20213;-69
2022/09/29 11:37:10;;;;;;;3.30;2.70;;;17.60;69.00;;;;;;5054555;28;20310;-69
2022/09/29 11:40:00;;;;;;;4.07;2.70;;;17.60;69.10;;;;;;5053279;28;20249;-69
2022/09/29 11:43:33;;;;;;;3.70;2.80;;;17.60;69.10;;;;;;5069956;28;20182;-69
2022/09/29 11:46:24;;;;;;;2.80;2.50;;;17.60;69.10;;;;;;5052868;28;20226;-69
2022/09/29 11:49:24;;;;;;;4.35;2.60;;;17.60;69.20;;;;;;5036455;28;20194;-70
2022/09/29 11:52:26;;;;;;;3.15;2.40;;;17.60;69.00;;;;;;5046037;28;20210;-69
2022/09/29 11:55:22;;;;;;;5.13;2.83;;;17.60;69.30;;;;;;5044815;28;20194;-70
2022/09/29 11:58:04;;;;;;;2.85;2.15;;;17.60;69.10;;;;;;5052841;28;20221;-69
2022/09/29 12:01:14;;;;;;;4.35;2.80;;;17.60;69.20;;;;;;5069741;28;20205;-69
2022/09/29 12:04:14;;;;;;;2.53;2.28;;;17.60;69.30;;;;;;5051950;28;20202;-68
2022/09/29 12:06:54;;;;;;;3.28;2.65;;;17.60;69.20;;;;;;5013163;28;20283;-69
2022/09/29 12:10:03;;;;;;;2.47;2.17;;;17.60;69.30;;;;;;5012924;28;20192;-69
2022/09/29 12:12:54;;;;;;;3.25;2.53;;;17.60;69.10;;;;;;4995983;28;20192;-68
2022/09/29 12:15:37;;;;;;;4.25;2.33;;;17.60;69.30;;;;;;5013097;28;20255;-69
2022/09/29 12:18:15;;;;;;;3.42;2.47;;;17.60;69.20;;;;;;5013898;28;20191;-69
2022/09/29 12:20:46;;;;;;;3.20;2.45;;;17.60;69.20;;;;;;4996670;28;20188;-69
2022/09/29 12:23:16;;;;;;;2.40;2.13;;;17.60;69.20;;;;;;5035346;28;20218;-69
2022/09/29 12:25:59;;;;;;;3.75;2.03;;;17.60;69.30;;;;;;5051221;28;20179;-69
2022/09/29 12:28:36;;;;;;;4.30;2.65;;;17.60;69.00;;;;;;5053513;28;20188;-70
2022/09/29 12:31:33;;;;;;;3.03;2.00;;;17.60;69.10;;;;;;5069316;28;20682;-69
2022/09/29 12:34:12;;;;;;;2.38;2.10;;;17.60;69.00;;;;;;5053852;28;20352;-69
2022/09/29 12:37:01;;;;;;;3.17;2.17;;;17.60;69.00;;;;;;5068977;28;20236;-69
2022/09/29 12:39:51;;;;;;;3.50;2.45;;;17.60;69.20;;;;;;5053356;28;20171;-69
2022/09/29 12:42:37;;;;;;;3.45;2.20;;;17.60;69.20;;;;;;5052209;28;20274;-69
2022/09/29 12:45:11;;;;;;;4.20;2.33;;;17.60;69.30;;;;;;5052102;28;20185;-69
2022/09/29 12:48:11;;;;;;;2.33;1.92;;;17.60;69.20;;;;;;5053129;28;20177;-69
2022/09/29 12:51:08;;;;;;;3.10;1.92;;;17.60;69.20;;;;;;5052203;28;20226;-68
2022/09/29 12:53:45;;;;;;;2.85;2.28;;;17.60;69.20;;;;;;5042830;28;20265;-69
2022/09/29 12:56:29;;;;;;;2.95;2.40;;;17.60;69.30;;;;;;5028821;28;20207;-68
2022/09/29 12:59:26;;;;;;;3.05;2.20;;;17.60;69.30;;;;;;5012100;28;20183;-69
2022/09/29 13:01:56;;;;;;;2.72;2.03;;;17.50;69.30;;;;;;5013430;28;20276;-69
2022/09/29 13:04:36;;;;;;;4.03;2.22;;;17.50;69.30;;;;;;5012119;28;20223;-68
2022/09/29 13:07:51;;;;;;;2.33;2.00;;;17.60;69.40;;;;;;5028605;28;20202;-69
2022/09/29 13:10:38;;;;;;;3.33;1.80;;;17.60;69.30;;;;;;5013140;28;20281;-69
2022/09/29 13:13:34;;;;;;;3.65;2.20;;;17.60;69.40;;;;;;5011880;28;20204;-69
2022/09/29 13:16:09;;;;;;;2.15;1.80;;;17.60;69.50;;;;;;5028507;28;20215;-70
2022/09/29 13:19:26;;;;;;;3.28;2.30;;;17.60;69.40;;;;;;5011774;28;20714;-69
2022/09/29 13:22:12;;;;;;;2.50;2.22;;;17.60;69.40;;;;;;5016310;28;20204;-69
2022/09/29 13:24:55;;;;;;;3.80;2.45;;;17.60;69.40;;;;;;5042335;28;20210;-69
2022/09/29 13:27:34;;;;;;;2.63;2.00;;;17.60;69.50;;;;;;5051207;28;20273;-68
2022/09/29 13:30:23;;;;;;;2.10;1.65;;;17.60;69.30;;;;;;5067998;28;20587;-68
2022/09/29 13:33:13;;;;;;;2.85;2.00;;;17.60;69.50;;;;;;5067870;28;20206;-68
2022/09/29 13:35:43;;;;;;;2.22;1.90;;;17.60;69.30;;;;;;5067795;28;20278;-68
2022/09/29 13:38:22;;;;;;;2.10;1.70;;;17.60;69.50;;;;;;5067540;28;20237;-68